createdAt,value
2023-03-31T00:01:05.919Z,71.87
2023-03-31T00:05:59.421Z,73.47
2023-03-31T00:10:51.973Z,74.34
2023-03-31T00:15:43.745Z,75.13
2023-03-31T00:20:38.204Z,75.18
2023-03-31T00:25:30.046Z,75.29
2023-03-31T00:30:21.739Z,76.35
2023-03-31T00:35:13.526Z,76.86
2023-03-31T00:40:09.313Z,78.38
2023-03-31T00:45:28.826Z,78.30
2023-03-31T00:50:29.244Z,77.82
2023-03-31T00:55:28.412Z,77.59
2023-03-31T01:00:20.419Z,77.41
2023-03-31T01:05:12.406Z,76.97
2023-03-31T01:10:05.487Z,77.61
2023-03-31T01:14:57.328Z,77.53
2023-03-31T01:20:15.436Z,76.95
2023-03-31T01:25:27.259Z,77.39
2023-03-31T01:30:46.695Z,77.53
2023-03-31T01:36:06.570Z,76.77
2023-03-31T01:41:24.744Z,76.73
2023-03-31T01:46:28.581Z,76.64
2023-03-31T01:51:35.583Z,76.20
2023-03-31T01:56:39.334Z,76.84
2023-03-31T02:01:40.929Z,77.38
2023-03-31T02:06:39.902Z,76.79
2023-03-31T02:11:34.634Z,76.88
2023-03-31T02:16:30.445Z,77.96
2023-03-31T02:21:22.842Z,78.40
2023-03-31T02:26:17.327Z,79.26
2023-03-31T02:31:21.583Z,78.94
2023-03-31T02:36:13.491Z,79.11
2023-03-31T02:41:06.874Z,79.73
2023-03-31T02:45:58.698Z,80.02
2023-03-31T02:50:59.589Z,80.74
2023-03-31T02:56:22.623Z,80.94
2023-03-31T03:01:43.572Z,81.62
2023-03-31T03:07:00.244Z,81.36
2023-03-31T03:11:58.306Z,81.67
2023-03-31T03:16:58.178Z,81.00
2023-03-31T03:21:50.399Z,80.96
2023-03-31T03:26:42.066Z,80.28
2023-03-31T03:31:34.780Z,79.24
2023-03-31T03:36:26.738Z,78.99
2023-03-31T03:41:18.545Z,78.31
2023-03-31T03:46:10.386Z,77.47
2023-03-31T03:51:02.308Z,77.18
2023-03-31T03:55:54.217Z,76.45
2023-03-31T04:00:46.283Z,76.79
2023-03-31T04:05:38.167Z,76.18
2023-03-31T04:10:30.326Z,75.89
2023-03-31T04:15:22.112Z,76.28
2023-03-31T04:20:15.152Z,75.87
2023-03-31T04:25:16.736Z,76.23
2023-03-31T04:30:09.241Z,76.37
2023-03-31T04:35:02.935Z,76.66
2023-03-31T04:39:54.803Z,76.75
2023-03-31T04:44:46.552Z,76.49
2023-03-31T04:49:38.398Z,76.07
2023-03-31T04:54:30.438Z,75.71
2023-03-31T04:59:22.294Z,75.16
2023-03-31T05:04:14.220Z,75.15
2023-03-31T05:09:06.552Z,74.60
2023-03-31T05:13:58.346Z,73.93
2023-03-31T05:18:50.228Z,73.97
2023-03-31T05:23:42.785Z,73.16
2023-03-31T05:28:36.024Z,73.76
2023-03-31T05:33:28.334Z,73.17
2023-03-31T05:38:21.567Z,72.78
2023-03-31T05:43:13.608Z,73.26
2023-03-31T05:48:06.177Z,71.83
2023-03-31T05:52:57.999Z,72.45
2023-03-31T05:57:49.709Z,72.78
2023-03-31T06:02:41.838Z,70.59
2023-03-31T06:07:33.624Z,70.20
2023-03-31T06:12:25.507Z,68.87
2023-03-31T06:17:17.191Z,67.45
2023-03-31T06:22:08.921Z,67.14
2023-03-31T06:27:01.364Z,68.14
2023-03-31T06:31:53.566Z,69.85
2023-03-31T06:36:45.700Z,69.19
2023-03-31T06:41:38.865Z,68.59
2023-03-31T06:46:30.758Z,68.12
2023-03-31T06:51:22.622Z,68.10
2023-03-31T06:56:14.433Z,67.46
2023-03-31T07:01:07.127Z,64.86
2023-03-31T07:05:59.384Z,58.87
2023-03-31T07:10:57.667Z,58.42
2023-03-31T07:15:50.343Z,60.26
2023-03-31T07:20:42.778Z,61.27
2023-03-31T07:25:35.979Z,60.58
2023-03-31T07:30:27.934Z,60.43
2023-03-31T07:35:20.732Z,60.76
2023-03-31T07:40:19.797Z,56.81
2023-03-31T07:45:11.574Z,52.54
2023-03-31T07:50:03.665Z,52.83
2023-03-31T07:54:55.408Z,52.50
2023-03-31T07:59:47.455Z,50.94
2023-03-31T08:04:42.194Z,49.89
2023-03-31T08:09:34.089Z,53.11
2023-03-31T08:14:40.078Z,54.58
2023-03-31T08:19:33.198Z,55.74
2023-03-31T08:24:25.061Z,54.27
2023-03-31T08:29:16.860Z,52.40
2023-03-31T08:34:08.611Z,51.44
2023-03-31T08:39:01.103Z,52.46
2023-03-31T08:43:56.157Z,50.76
2023-03-31T08:48:55.026Z,47.86
2023-03-31T08:53:53.331Z,43.29
2023-03-31T08:58:48.082Z,41.35
2023-03-31T09:04:10.944Z,40.61
2023-03-31T09:09:11.998Z,40.11
2023-03-31T09:14:09.733Z,39.73
2023-03-31T09:19:02.566Z,40.68
2023-03-31T09:24:03.446Z,39.09
2023-03-31T09:28:59.496Z,40.89
2023-03-31T09:33:55.535Z,43.60
2023-03-31T09:38:47.505Z,44.62
2023-03-31T09:43:41.351Z,47.56
2023-03-31T09:48:36.634Z,51.75
2023-03-31T09:53:46.291Z,46.15
2023-03-31T09:58:48.528Z,45.52
2023-03-31T10:03:52.237Z,45.28
2023-03-31T10:09:05.530Z,45.20
2023-03-31T10:14:16.260Z,45.04
2023-03-31T10:19:25.697Z,45.63
2023-03-31T10:24:20.660Z,45.54
2023-03-31T10:29:17.047Z,45.31
2023-03-31T10:34:17.152Z,44.68
2023-03-31T10:39:10.475Z,45.10
2023-03-31T10:44:04.756Z,44.73
2023-03-31T10:49:00.376Z,45.41
2023-03-31T10:54:00.761Z,44.11
2023-03-31T10:59:12.535Z,44.16
2023-03-31T11:04:26.469Z,44.25
2023-03-31T11:09:54.555Z,44.15
2023-03-31T11:14:58.688Z,44.50
2023-03-31T11:20:18.210Z,44.92
2023-03-31T11:25:16.497Z,45.40
2023-03-31T11:30:20.823Z,46.52
2023-03-31T11:35:30.990Z,46.10
2023-03-31T11:40:33.591Z,44.61
2023-03-31T11:45:32.254Z,45.75
2023-03-31T11:50:29.313Z,46.00
2023-03-31T11:55:26.181Z,46.93
2023-03-31T12:00:21.127Z,47.65
2023-03-31T12:05:16.339Z,50.28
2023-03-31T12:10:29.732Z,56.35
2023-03-31T12:15:24.744Z,54.86
2023-03-31T12:20:29.900Z,51.22
2023-03-31T12:25:23.247Z,49.51
2023-03-31T12:30:35.099Z,49.05
2023-03-31T12:35:34.592Z,47.74
2023-03-31T12:40:35.493Z,45.36
2023-03-31T12:45:35.387Z,45.50
2023-03-31T12:50:38.781Z,44.78
2023-03-31T12:55:58.065Z,48.35
2023-03-31T13:01:12.333Z,50.23
2023-03-31T13:06:05.849Z,55.49
2023-03-31T13:10:59.419Z,55.70
2023-03-31T13:15:56.460Z,54.65
2023-03-31T13:25:57.509Z,53.55
2023-03-31T13:30:51.534Z,49.97
2023-03-31T13:35:48.651Z,48.55
2023-03-31T13:40:59.067Z,47.90
2023-03-31T13:46:08.822Z,48.36
2023-03-31T13:51:00.854Z,49.77
2023-03-31T13:56:08.082Z,48.89
2023-03-31T14:01:25.253Z,47.79
2023-03-31T14:06:35.709Z,46.23
2023-03-31T14:11:31.951Z,44.78
2023-03-31T14:16:23.733Z,44.91
2023-03-31T14:21:28.470Z,44.52
2023-03-31T14:26:42.474Z,45.06
2023-03-31T14:32:21.191Z,44.59
2023-03-31T14:37:21.972Z,44.63
2023-03-31T14:42:16.636Z,44.07
2023-03-31T14:47:22.862Z,44.13
2023-03-31T14:52:18.556Z,44.04
2023-03-31T14:57:13.771Z,44.92
2023-03-31T15:02:06.523Z,45.30
2023-03-31T15:07:01.104Z,45.51
2023-03-31T15:12:10.998Z,46.21
2023-03-31T15:17:02.851Z,47.78
2023-03-31T15:21:57.271Z,48.18
2023-03-31T15:27:01.397Z,48.70
2023-03-31T15:31:57.237Z,49.08
2023-03-31T15:36:49.527Z,50.92
2023-03-31T15:41:43.089Z,51.97
2023-03-31T15:46:43.954Z,55.95
2023-03-31T15:51:41.367Z,58.55
2023-03-31T15:56:44.763Z,58.84
2023-03-31T16:01:44.487Z,59.73
2023-03-31T16:06:50.869Z,59.66
2023-03-31T16:11:56.805Z,58.46
2023-03-31T16:16:52.950Z,60.86
2023-03-31T16:21:52.861Z,65.17
2023-03-31T16:26:44.673Z,67.03
2023-03-31T16:31:40.463Z,67.31
2023-03-31T16:36:32.338Z,67.04
2023-03-31T16:41:25.461Z,65.78
2023-03-31T16:46:17.809Z,65.91
2023-03-31T16:51:09.949Z,65.32
2023-03-31T16:56:02.514Z,63.42
2023-03-31T17:00:55.604Z,63.39
2023-03-31T17:05:53.372Z,63.50
2023-03-31T17:10:52.891Z,62.97
2023-03-31T17:15:44.662Z,62.56
2023-03-31T17:20:36.703Z,61.38
2023-03-31T17:25:28.964Z,60.94
2023-03-31T17:30:20.778Z,61.05
2023-03-31T17:35:20.292Z,60.56
2023-03-31T17:40:12.599Z,60.37
2023-03-31T17:45:05.292Z,60.21
2023-03-31T17:49:57.378Z,59.92
2023-03-31T17:54:50.335Z,59.82
2023-03-31T17:59:42.691Z,59.78
2023-03-31T18:04:34.454Z,60.34
2023-03-31T18:09:26.622Z,59.77
2023-03-31T18:14:18.615Z,61.01
2023-03-31T18:19:11.095Z,61.06
2023-03-31T18:24:02.866Z,60.91
2023-03-31T18:28:54.954Z,61.97
2023-03-31T18:33:46.819Z,63.70
2023-03-31T18:38:38.605Z,65.37
2023-03-31T18:43:32.798Z,68.96
2023-03-31T18:48:25.334Z,69.87
2023-03-31T18:53:18.615Z,70.16
2023-03-31T18:58:11.151Z,69.44
2023-03-31T19:03:03.362Z,67.43
2023-03-31T19:07:55.226Z,67.57
2023-03-31T19:12:48.687Z,68.45
2023-03-31T19:17:40.605Z,67.97
2023-03-31T19:22:33.025Z,68.74
2023-03-31T19:27:25.053Z,69.71
2023-03-31T19:32:17.262Z,70.16
2023-03-31T19:37:09.768Z,68.92
2023-03-31T19:42:02.761Z,70.27
2023-03-31T19:46:54.785Z,70.35
2023-03-31T19:51:46.779Z,70.31
2023-03-31T19:56:39.170Z,69.70
2023-03-31T20:01:31.336Z,67.76
2023-03-31T20:06:26.597Z,67.98
2023-03-31T20:11:18.850Z,67.41
2023-03-31T20:16:17.910Z,67.42
2023-03-31T20:21:13.034Z,66.89
2023-03-31T20:26:07.145Z,66.90
2023-03-31T20:30:59.285Z,66.67
2023-03-31T20:36:09.958Z,67.30
2023-03-31T20:41:01.791Z,66.57
2023-03-31T20:46:03.080Z,67.28
2023-03-31T20:50:54.964Z,66.67
2023-03-31T20:55:46.809Z,66.51
2023-03-31T21:00:38.653Z,66.64
2023-03-31T21:05:30.823Z,66.83
2023-03-31T21:10:24.632Z,66.55
2023-03-31T21:15:16.784Z,66.68
2023-03-31T21:20:09.196Z,66.19
2023-03-31T21:25:01.191Z,66.24
2023-03-31T21:29:53.091Z,65.86
2023-03-31T21:34:44.901Z,66.29
2023-03-31T21:39:36.804Z,65.47
2023-03-31T21:44:28.623Z,65.31
2023-03-31T21:49:21.033Z,65.71
2023-03-31T21:54:13.069Z,65.34
2023-03-31T21:59:04.784Z,64.86
2023-03-31T22:03:56.617Z,65.32
2023-03-31T22:08:48.628Z,65.28
2023-03-31T22:13:41.010Z,65.35
2023-03-31T22:18:32.771Z,66.13
2023-03-31T22:23:24.610Z,68.48
2023-03-31T22:28:17.643Z,68.79
2023-03-31T22:33:09.520Z,69.01
2023-03-31T22:38:01.641Z,68.17
2023-03-31T22:42:54.901Z,68.38
2023-03-31T22:47:47.050Z,68.38
2023-03-31T22:52:38.834Z,68.74
2023-03-31T22:57:30.839Z,69.02
2023-03-31T23:02:22.656Z,69.71
2023-03-31T23:07:16.320Z,69.55
2023-03-31T23:12:08.137Z,69.82
2023-03-31T23:17:00.267Z,69.50
2023-03-31T23:21:52.560Z,70.31
2023-03-31T23:26:44.314Z,69.46
2023-03-31T23:31:36.257Z,69.42
2023-03-31T23:36:28.914Z,69.29
2023-03-31T23:41:22.959Z,69.50
2023-03-31T23:46:14.857Z,69.36
2023-03-31T23:51:08.764Z,69.21
2023-03-31T23:56:07.870Z,68.96
